Time;durP1;ratioP1;P1;durP2;ratioP2;P2;SDS_P1;SDS_P2;PMS_P1;PMS_P2;Temp;Humidity;BMP_temperature;BMP_pressure;BME280_temperature;BME280_humidity;BME280_pressure;Samples;Min_cycle;Max_cycle;Signal;HPM_P1;HPM_P2
2023/03/22 00:01:55;;;;;;;0.43;0.43;;;2.10;99.90;;;;;;5092019;28;20180;-73
2023/03/22 00:04:21;;;;;;;0.60;0.60;;;2.10;99.90;;;;;;5074000;28;20238;-74
2023/03/22 00:06:47;;;;;;;0.50;0.50;;;2.10;99.90;;;;;;5092387;28;20196;-73
2023/03/22 00:09:12;;;;;;;0.70;0.70;;;2.10;99.90;;;;;;5092456;28;20201;-74
2023/03/22 00:11:38;;;;;;;0.60;0.60;;;2.10;99.90;;;;;;5074009;28;20595;-73
2023/03/22 00:14:05;;;;;;;0.60;0.60;;;2.10;99.90;;;;;;5074565;28;20196;-73
2023/03/22 00:16:30;;;;;;;0.60;0.60;;;2.10;99.90;;;;;;5074016;28;20196;-74
2023/03/22 00:18:56;;;;;;;0.60;0.60;;;2.10;99.90;;;;;;5092278;28;20196;-74
2023/03/22 00:21:22;;;;;;;0.50;0.50;;;2.10;99.90;;;;;;5091986;28;20184;-73
2023/03/22 00:23:48;;;;;;;0.60;0.60;;;2.20;99.90;;;;;;5085179;28;20241;-74
2023/03/22 00:26:14;;;;;;;0.60;0.60;;;2.20;99.90;;;;;;5082643;28;20538;-74
2023/03/22 00:28:43;;;;;;;0.60;0.60;;;2.20;99.90;;;;;;5092120;28;20204;-74
2023/03/22 00:31:09;;;;;;;0.70;0.70;;;2.20;99.90;;;;;;5074133;28;20287;-74
2023/03/22 00:33:36;;;;;;;0.60;0.60;;;2.20;99.90;;;;;;5092128;28;20207;-74
2023/03/22 00:36:07;;;;;;;0.52;0.52;;;2.30;99.90;;;;;;5092233;28;20192;-74
2023/03/22 00:38:35;;;;;;;1.05;0.75;;;2.30;99.90;;;;;;5092353;28;20200;-74
2023/03/22 00:41:21;;;;;;;0.50;0.50;;;2.20;99.90;;;;;;5091890;28;20211;-74
2023/03/22 00:43:48;;;;;;;0.50;0.50;;;2.20;99.90;;;;;;5092194;28;20550;-74
2023/03/22 00:46:16;;;;;;;0.50;0.50;;;2.20;99.90;;;;;;5073933;28;20199;-75
2023/03/22 00:48:42;;;;;;;0.60;0.60;;;2.20;99.90;;;;;;5091955;28;20195;-74
2023/03/22 00:51:09;;;;;;;0.60;0.60;;;2.20;99.90;;;;;;5092058;28;20720;-75
2023/03/22 00:53:38;;;;;;;0.60;0.60;;;2.20;99.90;;;;;;5091845;28;20196;-75
2023/03/22 00:56:04;;;;;;;0.60;0.60;;;2.30;99.90;;;;;;5092020;28;20200;-74
2023/03/22 00:58:31;;;;;;;0.57;0.57;;;2.30;99.90;;;;;;5094274;28;20192;-75
2023/03/22 01:00:56;;;;;;;0.40;0.40;;;2.30;99.90;;;;;;5077472;28;20235;-76
2023/03/22 01:03:23;;;;;;;1.05;1.05;;;2.30;99.90;;;;;;5076878;28;20633;-75
2023/03/22 01:05:54;;;;;;;0.43;0.43;;;2.30;99.90;;;;;;5060860;28;20208;-75
2023/03/22 01:08:21;;;;;;;0.50;0.50;;;2.30;99.90;;;;;;5095470;28;20655;-75
2023/03/22 01:10:51;;;;;;;0.63;0.63;;;2.40;99.90;;;;;;5077276;28;20397;-75
2023/03/22 01:13:17;;;;;;;0.65;0.65;;;2.40;99.90;;;;;;5077290;28;20200;-75
2023/03/22 01:15:43;;;;;;;0.68;0.68;;;2.40;99.90;;;;;;5077099;28;20204;-75
2023/03/22 01:18:09;;;;;;;0.70;0.70;;;2.40;99.90;;;;;;5077197;28;20200;-75
2023/03/22 01:20:34;;;;;;;0.68;0.68;;;2.40;99.90;;;;;;5095369;28;20520;-75
2023/03/22 01:23:00;;;;;;;0.50;0.50;;;2.40;99.90;;;;;;5094548;28;20196;-75
2023/03/22 01:25:26;;;;;;;0.60;0.60;;;2.40;99.90;;;;;;5074936;28;20189;-75
2023/03/22 01:27:52;;;;;;;0.60;0.60;;;2.40;99.90;;;;;;5074972;28;20211;-75
2023/03/22 01:30:21;;;;;;;0.65;0.65;;;2.40;99.90;;;;;;5056888;28;20632;-75
2023/03/22 01:32:47;;;;;;;0.70;0.70;;;2.40;99.90;;;;;;5056968;28;20201;-75
2023/03/22 01:35:12;;;;;;;0.60;0.60;;;2.30;99.90;;;;;;5076370;28;20255;-75
2023/03/22 01:37:38;;;;;;;0.55;0.55;;;2.40;99.90;;;;;;5094973;28;20200;-74
2023/03/22 01:40:05;;;;;;;0.65;0.65;;;2.40;99.90;;;;;;5094881;28;20207;-75
2023/03/22 01:42:31;;;;;;;0.52;0.52;;;2.50;99.90;;;;;;5076478;28;20192;-75
2023/03/22 01:45:17;;;;;;;1.55;1.02;;;2.50;99.90;;;;;;5095010;28;20198;-74
2023/03/22 01:48:01;;;;;;;0.55;0.55;;;2.50;99.90;;;;;;5094798;28;20719;-75
2023/03/22 01:50:28;;;;;;;0.60;0.60;;;2.60;99.90;;;;;;5094667;28;20188;-75
2023/03/22 01:52:59;;;;;;;0.60;0.60;;;2.60;99.90;;;;;;5094834;28;20192;-75
2023/03/22 01:55:26;;;;;;;0.60;0.60;;;2.60;99.90;;;;;;5076118;28;20196;-74
2023/03/22 01:57:56;;;;;;;0.70;0.70;;;2.70;99.90;;;;;;5094746;28;20201;-75
2023/03/22 02:00:22;;;;;;;0.50;0.50;;;2.80;99.90;;;;;;5094566;28;20208;-75
2023/03/22 02:02:50;;;;;;;0.60;0.60;;;2.80;99.90;;;;;;5094278;28;20223;-75
2023/03/22 02:05:48;;;;;;;0.60;0.60;;;2.80;99.90;;;;;;5121312;22;20278;-72
2023/03/22 02:08:24;;;;;;;0.55;0.55;;;2.80;99.90;;;;;;5020383;28;20219;-73
2023/03/22 02:10:56;;;;;;;0.60;0.60;;;2.80;99.90;;;;;;5053676;28;20197;-76
2023/03/22 02:13:57;;;;;;;0.57;0.57;;;2.80;99.90;;;;;;5054184;28;20193;-76
2023/03/22 02:16:34;;;;;;;0.50;0.50;;;2.80;99.90;;;;;;5054476;28;20190;-76
2023/03/22 02:19:18;;;;;;;0.60;0.60;;;2.90;99.90;;;;;;5067387;28;20198;-75
2023/03/22 02:22:08;;;;;;;0.63;0.63;;;2.90;99.90;;;;;;5074478;28;20203;-76
2023/03/22 02:25:03;;;;;;;0.57;0.57;;;3.00;99.90;;;;;;5069708;28;20193;-76
2023/03/22 02:27:56;;;;;;;0.90;0.90;;;3.10;99.90;;;;;;5054598;28;20603;-76
2023/03/22 02:30:37;;;;;;;0.50;0.50;;;3.00;99.90;;;;;;5052883;28;20201;-75
2023/03/22 02:33:37;;;;;;;0.50;0.50;;;3.10;99.90;;;;;;5069050;28;20762;-76
2023/03/22 02:36:31;;;;;;;0.50;0.50;;;3.10;99.90;;;;;;5074384;28;20192;-76
2023/03/22 02:39:40;;;;;;;0.50;0.50;;;3.10;99.90;;;;;;5074166;28;20197;-76
2023/03/22 02:42:17;;;;;;;0.60;0.60;;;3.10;99.90;;;;;;4992703;28;20203;-76
2023/03/22 02:45:39;;;;;;;0.60;0.60;;;3.10;99.90;;;;;;4992670;28;20203;-76
2023/03/22 02:48:14;;;;;;;0.50;0.50;;;3.00;99.90;;;;;;4892919;29;20828;-76
2023/03/22 02:50:55;;;;;;;0.50;0.50;;;3.00;99.90;;;;;;4988479;28;20211;-76
2023/03/22 02:53:33;;;;;;;0.60;0.60;;;3.00;99.90;;;;;;4956615;28;20215;-76
2023/03/22 02:56:06;;;;;;;0.60;0.60;;;3.00;99.90;;;;;;4973105;28;20211;-76
2023/03/22 02:58:44;;;;;;;0.60;0.60;;;3.00;99.90;;;;;;4956838;28;20235;-76
2023/03/22 03:01:16;;;;;;;0.60;0.60;;;3.00;99.90;;;;;;4961672;28;20250;-76
2023/03/22 03:03:47;;;;;;;0.60;0.60;;;3.00;99.90;;;;;;4990523;28;20785;-76
2023/03/22 03:06:17;;;;;;;0.55;0.55;;;3.10;99.90;;;;;;4991997;28;20314;-76
2023/03/22 03:08:49;;;;;;;0.57;0.57;;;3.10;99.90;;;;;;4992322;28;20226;-76
2023/03/22 03:11:18;;;;;;;0.50;0.50;;;3.10;99.90;;;;;;4975823;28;20262;-77
2023/03/22 03:13:48;;;;;;;0.60;0.60;;;3.10;99.90;;;;;;5044792;28;20668;-76
2023/03/22 03:16:20;;;;;;;0.50;0.50;;;3.00;99.90;;;;;;5053367;28;20655;-75
2023/03/22 03:19:07;;;;;;;0.65;0.65;;;3.00;99.90;;;;;;5063088;28;20193;-76
2023/03/22 03:22:01;;;;;;;0.55;0.55;;;3.10;99.90;;;;;;5071660;28;20961;-75
2023/03/22 03:24:50;;;;;;;0.47;0.47;;;3.10;99.90;;;;;;5060940;28;20255;-75
2023/03/22 03:27:26;;;;;;;1.10;1.00;;;3.10;99.90;;;;;;5053759;28;20194;-75
2023/03/22 03:30:10;;;;;;;0.70;0.70;;;3.10;99.90;;;;;;5051549;28;20205;-75
2023/03/22 03:32:59;;;;;;;0.60;0.60;;;3.20;99.90;;;;;;5064163;28;20209;-75
2023/03/22 03:36:06;;;;;;;0.75;0.75;;;3.10;99.90;;;;;;5071803;28;20201;-76
2023/03/22 03:38:35;;;;;;;0.70;0.70;;;3.10;99.90;;;;;;5072996;28;20567;-75
2023/03/22 03:41:13;;;;;;;0.63;0.63;;;3.20;99.90;;;;;;5073158;28;20232;-75
2023/03/22 03:43:50;;;;;;;0.63;0.63;;;3.20;99.90;;;;;;5072953;28;20189;-76
2023/03/22 03:46:16;;;;;;;0.60;0.60;;;3.10;99.90;;;;;;5071840;28;20618;-76
2023/03/22 03:48:46;;;;;;;0.68;0.68;;;3.20;99.90;;;;;;5073189;28;20212;-75
2023/03/22 03:51:15;;;;;;;0.60;0.60;;;3.20;99.90;;;;;;5071664;28;20258;-76
2023/03/22 03:53:41;;;;;;;0.60;0.60;;;3.20;99.90;;;;;;5071456;28;20255;-76
2023/03/22 03:56:08;;;;;;;0.70;0.70;;;3.20;99.90;;;;;;5073035;28;20196;-76
2023/03/22 03:58:33;;;;;;;0.70;0.70;;;3.20;99.90;;;;;;5072742;28;20212;-76
2023/03/22 04:00:59;;;;;;;0.55;0.55;;;3.20;99.90;;;;;;5064923;28;20205;-76
2023/03/22 04:03:25;;;;;;;0.60;0.60;;;3.20;99.90;;;;;;5070020;28;20224;-76
2023/03/22 04:05:51;;;;;;;0.60;0.60;;;3.20;99.90;;;;;;5072619;28;20224;-76
2023/03/22 04:08:16;;;;;;;0.60;0.60;;;3.20;99.90;;;;;;5072990;28;20223;-76
2023/03/22 04:10:42;;;;;;;0.45;0.45;;;3.20;99.90;;;;;;5072687;28;20216;-76
2023/03/22 04:13:14;;;;;;;0.63;0.63;;;3.20;99.90;;;;;;5072928;28;20658;-75
2023/03/22 04:15:42;;;;;;;0.60;0.60;;;3.20;99.90;;;;;;5072292;28;20279;-76
2023/03/22 04:18:10;;;;;;;0.50;0.50;;;3.20;99.90;;;;;;5070841;28;20245;-75
2023/03/22 04:20:44;;;;;;;0.60;0.60;;;3.20;99.90;;;;;;5070472;28;20217;-75
2023/03/22 04:23:10;;;;;;;0.60;0.60;;;3.20;99.90;;;;;;5070922;28;20662;-75
2023/03/22 04:25:42;;;;;;;0.70;0.70;;;3.20;99.90;;;;;;5051136;28;20264;-75
2023/03/22 04:28:08;;;;;;;0.60;0.60;;;3.20;99.90;;;;;;5052564;28;20276;-75
2023/03/22 04:30:37;;;;;;;0.68;0.68;;;3.20;99.90;;;;;;5052668;28;20194;-75
2023/03/22 04:33:06;;;;;;;0.60;0.60;;;3.20;99.90;;;;;;5069236;28;20622;-77
2023/03/22 04:35:39;;;;;;;0.50;0.50;;;3.30;99.90;;;;;;5075263;28;20204;-76
2023/03/22 04:38:06;;;;;;;0.50;0.50;;;3.30;99.90;;;;;;5075273;28;20642;-75
2023/03/22 04:40:35;;;;;;;0.60;0.60;;;3.30;99.90;;;;;;5075342;28;20574;-74
2023/03/22 04:44:09;;;;;;;0.60;0.60;;;3.40;99.90;;;;;;5074666;28;20189;-73
2023/03/22 04:46:36;;;;;;;0.60;0.60;;;3.40;99.90;;;;;;5014565;28;20205;-73
2023/03/22 04:49:03;;;;;;;0.60;0.60;;;3.40;99.90;;;;;;5056670;28;20193;-73
2023/03/22 04:51:30;;;;;;;0.50;0.50;;;3.50;99.90;;;;;;5056332;28;20206;-72
2023/03/22 04:53:57;;;;;;;0.60;0.60;;;3.50;99.90;;;;;;5056193;28;20221;-73
2023/03/22 04:56:23;;;;;;;0.50;0.50;;;3.50;99.90;;;;;;5074230;28;20563;-72
2023/03/22 04:58:52;;;;;;;0.55;0.55;;;3.50;99.90;;;;;;5074889;28;20589;-72
2023/03/22 05:01:41;;;;;;;;;;;;;;;;;;;;;
2023/03/22 05:04:07;;;;;;;0.50;0.50;;;3.50;99.90;;;;;;5075697;28;20201;-74
2023/03/22 05:06:36;;;;;;;0.52;0.52;;;3.50;99.90;;;;;;5057839;28;20631;-73
2023/03/22 05:09:05;;;;;;;0.60;0.60;;;3.50;99.90;;;;;;5076075;28;20277;-73
2023/03/22 05:11:33;;;;;;;0.55;0.55;;;3.50;99.90;;;;;;5058400;28;20648;-72
2023/03/22 05:13:59;;;;;;;0.50;0.50;;;3.50;99.90;;;;;;5058106;28;20655;-73
2023/03/22 05:16:28;;;;;;;0.60;0.60;;;3.50;99.90;;;;;;5075701;28;20192;-72
2023/03/22 05:18:54;;;;;;;0.70;0.70;;;3.50;99.90;;;;;;5063857;28;20194;-72
2023/03/22 05:21:26;;;;;;;0.60;0.60;;;3.50;99.90;;;;;;5055694;28;20250;-72
2023/03/22 05:23:54;;;;;;;0.70;0.70;;;3.60;99.90;;;;;;5041602;28;20618;-72
2023/03/22 05:26:23;;;;;;;0.70;0.70;;;3.70;99.90;;;;;;5037871;28;20288;-73
2023/03/22 05:28:50;;;;;;;0.60;0.60;;;3.80;99.90;;;;;;5066475;28;20197;-72
2023/03/22 05:31:22;;;;;;;0.50;0.50;;;3.90;99.90;;;;;;5057685;28;20192;-75
2023/03/22 05:33:49;;;;;;;0.57;0.57;;;4.00;99.90;;;;;;5075014;28;20640;-72
2023/03/22 05:36:19;;;;;;;0.50;0.50;;;4.10;99.90;;;;;;5075086;28;20197;-72
2023/03/22 05:38:45;;;;;;;0.55;0.55;;;4.20;99.90;;;;;;5075386;28;20674;-74
2023/03/22 05:41:12;;;;;;;0.40;0.40;;;4.20;99.90;;;;;;5075257;28;20813;-73
2023/03/22 05:43:39;;;;;;;0.70;0.70;;;4.30;99.90;;;;;;5074347;28;20655;-73
2023/03/22 05:46:10;;;;;;;0.47;0.47;;;4.50;99.90;;;;;;5056745;28;20683;-73
2023/03/22 05:48:37;;;;;;;0.60;0.60;;;4.50;99.90;;;;;;5075266;28;20580;-73
2023/03/22 05:51:24;;;;;;;0.60;0.60;;;4.60;99.90;;;;;;5075189;28;20193;-73
2023/03/22 05:53:52;;;;;;;0.70;0.70;;;4.60;99.90;;;;;;5056964;28;20630;-73
2023/03/22 05:56:27;;;;;;;0.70;0.70;;;4.60;99.90;;;;;;5056987;28;20561;-73
2023/03/22 05:59:29;;;;;;;0.50;0.50;;;4.70;99.90;;;;;;5057146;28;20202;-72
2023/03/22 06:01:58;;;;;;;0.60;0.60;;;4.70;99.90;;;;;;4993084;28;20577;-73
2023/03/22 06:04:23;;;;;;;0.93;0.93;;;4.60;99.90;;;;;;4975502;28;20233;-73
2023/03/22 06:06:50;;;;;;;0.60;0.60;;;4.70;99.90;;;;;;5013200;28;20656;-74
2023/03/22 06:09:19;;;;;;;0.50;0.50;;;4.80;99.90;;;;;;4996434;28;20207;-73
2023/03/22 06:11:47;;;;;;;0.60;0.60;;;4.80;99.90;;;;;;4996725;28;20203;-73
2023/03/22 06:14:13;;;;;;;0.70;0.70;;;4.80;99.90;;;;;;4996751;28;20587;-74
2023/03/22 06:16:51;;;;;;;0.70;0.70;;;4.80;99.90;;;;;;4996063;28;20579;-73
2023/03/22 06:19:20;;;;;;;0.50;0.50;;;4.80;99.90;;;;;;5012481;28;20199;-74
2023/03/22 06:21:53;;;;;;;0.60;0.60;;;4.80;99.90;;;;;;4995090;28;20211;-74
2023/03/22 06:24:22;;;;;;;1.73;1.17;;;4.80;99.90;;;;;;4996050;28;20191;-74
2023/03/22 06:26:51;;;;;;;0.70;0.70;;;4.80;99.90;;;;;;5012769;28;20317;-74
2023/03/22 06:29:20;;;;;;;0.52;0.52;;;4.90;99.90;;;;;;5026938;28;20218;-74
2023/03/22 06:31:51;;;;;;;0.52;0.52;;;5.00;99.90;;;;;;5015881;28;20257;-74
2023/03/22 06:34:29;;;;;;;0.50;0.50;;;5.00;99.90;;;;;;5015756;28;20225;-74
2023/03/22 06:36:55;;;;;;;0.50;0.50;;;5.00;99.90;;;;;;5066169;28;20576;-74
2023/03/22 06:39:32;;;;;;;0.57;0.57;;;5.00;99.90;;;;;;5074072;28;20220;-73
2023/03/22 06:41:57;;;;;;;0.63;0.63;;;5.10;99.90;;;;;;5073117;28;20720;-73
2023/03/22 06:44:29;;;;;;;0.60;0.60;;;5.10;99.90;;;;;;5072753;28;20197;-74
2023/03/22 06:46:55;;;;;;;0.60;0.60;;;5.20;99.90;;;;;;5072952;28;20204;-73
2023/03/22 06:49:21;;;;;;;0.70;0.70;;;5.20;99.90;;;;;;5074327;28;20213;-73
2023/03/22 06:51:50;;;;;;;0.70;0.70;;;5.20;99.90;;;;;;5073936;28;20312;-73
2023/03/22 06:54:15;;;;;;;0.75;0.75;;;5.30;99.90;;;;;;5072375;28;20595;-73
2023/03/22 06:56:44;;;;;;;0.80;0.80;;;5.30;99.90;;;;;;5072175;28;20250;-75
2023/03/22 06:59:14;;;;;;;0.60;0.60;;;5.30;99.90;;;;;;5072601;28;20193;-73
2023/03/22 07:01:41;;;;;;;0.50;0.50;;;5.30;99.90;;;;;;5072361;28;20221;-73
2023/03/22 07:04:06;;;;;;;0.55;0.55;;;5.30;99.90;;;;;;5073849;28;20212;-74
2023/03/22 07:06:35;;;;;;;0.50;0.50;;;5.40;99.90;;;;;;5073433;28;20232;-73
2023/03/22 07:09:01;;;;;;;0.52;0.52;;;5.40;99.90;;;;;;5073475;28;20197;-73
2023/03/22 07:11:27;;;;;;;0.80;0.80;;;5.50;99.90;;;;;;5073389;28;20203;-73
2023/03/22 07:14:02;;;;;;;0.57;0.57;;;5.50;99.90;;;;;;5073648;28;20192;-73
2023/03/22 07:16:33;;;;;;;0.60;0.60;;;5.50;99.90;;;;;;5073230;28;20238;-73
2023/03/22 07:19:12;;;;;;;0.70;0.70;;;5.50;99.90;;;;;;5055417;28;20200;-73
2023/03/22 07:21:38;;;;;;;0.50;0.50;;;5.50;99.90;;;;;;5055725;28;20208;-74
2023/03/22 07:24:10;;;;;;;0.50;0.50;;;5.50;99.90;;;;;;5052256;28;20224;-73
2023/03/22 07:26:37;;;;;;;0.70;0.70;;;5.60;99.90;;;;;;5051767;28;20286;-74
2023/03/22 07:29:07;;;;;;;0.68;0.68;;;5.60;99.90;;;;;;5048175;28;20212;-73
2023/03/22 07:31:36;;;;;;;0.50;0.50;;;5.60;99.90;;;;;;5073276;28;20193;-74
2023/03/22 07:34:05;;;;;;;0.60;0.60;;;5.60;99.90;;;;;;5055623;28;20229;-74
2023/03/22 07:36:37;;;;;;;0.50;0.50;;;5.60;99.90;;;;;;5072837;28;20655;-74
2023/03/22 07:39:06;;;;;;;0.80;0.80;;;5.70;99.90;;;;;;5073431;28;20704;-73
2023/03/22 07:41:38;;;;;;;0.60;0.60;;;5.80;99.90;;;;;;5073089;28;20254;-73
2023/03/22 07:44:05;;;;;;;0.60;0.60;;;5.90;99.90;;;;;;5055269;28;20232;-75
2023/03/22 07:46:37;;;;;;;0.50;0.50;;;6.00;99.90;;;;;;5055122;28;20291;-74
2023/03/22 07:49:06;;;;;;;0.85;0.85;;;6.00;99.90;;;;;;5054871;28;20567;-74
2023/03/22 07:51:37;;;;;;;0.60;0.60;;;6.00;99.90;;;;;;5072757;28;20197;-73
2023/03/22 07:54:04;;;;;;;0.70;0.70;;;6.00;99.90;;;;;;5072999;28;20236;-75
2023/03/22 07:56:29;;;;;;;0.52;0.52;;;6.00;99.90;;;;;;5054947;28;20201;-75
2023/03/22 07:58:55;;;;;;;0.60;0.60;;;6.10;99.90;;;;;;5055220;28;20200;-75
2023/03/22 08:01:21;;;;;;;0.50;0.50;;;6.10;99.90;;;;;;5054962;28;20220;-74
2023/03/22 08:03:47;;;;;;;0.60;0.60;;;6.20;99.90;;;;;;5054834;28;20232;-74
2023/03/22 08:06:17;;;;;;;0.60;0.60;;;6.20;99.90;;;;;;5072856;28;20237;-75
2023/03/22 08:08:49;;;;;;;0.50;0.50;;;6.30;99.90;;;;;;5054509;28;20197;-75
2023/03/22 08:11:15;;;;;;;0.57;0.57;;;6.30;99.90;;;;;;5062040;28;20771;-74
2023/03/22 08:13:47;;;;;;;0.60;0.60;;;6.30;99.90;;;;;;5035246;28;20233;-74
2023/03/22 08:16:13;;;;;;;0.60;0.60;;;6.40;99.90;;;;;;5034898;28;20228;-74
2023/03/22 08:18:41;;;;;;;0.60;0.60;;;6.40;99.90;;;;;;5034658;28;20233;-74
2023/03/22 08:21:07;;;;;;;0.60;0.60;;;6.50;99.90;;;;;;5052940;28;20212;-75
2023/03/22 08:23:33;;;;;;;0.63;0.63;;;6.40;99.90;;;;;;5035977;28;20189;-75
2023/03/22 08:25:59;;;;;;;0.60;0.60;;;6.40;99.90;;;;;;5070949;28;20567;-74
2023/03/22 08:28:28;;;;;;;0.60;0.60;;;6.50;99.90;;;;;;5052201;28;20258;-74
2023/03/22 08:30:59;;;;;;;0.70;0.70;;;6.40;99.90;;;;;;5054768;28;20242;-75
2023/03/22 08:33:37;;;;;;;0.60;0.60;;;6.40;99.90;;;;;;5054453;28;20212;-73
2023/03/22 08:36:15;;;;;;;0.52;0.52;;;6.50;99.90;;;;;;5072528;28;20876;-73
2023/03/22 08:39:22;;;;;;;0.65;0.65;;;6.50;99.90;;;;;;5055032;28;20682;-74
2023/03/22 08:41:57;;;;;;;0.60;0.60;;;6.50;99.90;;;;;;5034899;28;20209;-74
2023/03/22 08:44:48;;;;;;;0.60;0.60;;;6.50;99.90;;;;;;5034807;28;20231;-74
2023/03/22 08:47:14;;;;;;;0.50;0.50;;;6.60;99.90;;;;;;5015500;28;20205;-74
2023/03/22 08:49:49;;;;;;;0.60;0.60;;;6.60;99.90;;;;;;5034264;28;20198;-74
2023/03/22 08:52:18;;;;;;;0.60;0.60;;;6.60;99.90;;;;;;5034738;28;20201;-74
2023/03/22 08:54:44;;;;;;;0.60;0.60;;;6.70;99.90;;;;;;5034554;28;20197;-74
2023/03/22 08:57:16;;;;;;;0.60;0.60;;;6.70;99.90;;;;;;5034620;28;20201;-75
2023/03/22 08:59:42;;;;;;;0.50;0.50;;;6.80;99.90;;;;;;5034503;28;20221;-75
2023/03/22 09:02:11;;;;;;;0.55;0.55;;;6.70;99.90;;;;;;5034225;28;20549;-75
2023/03/22 09:04:39;;;;;;;0.50;0.50;;;6.80;99.90;;;;;;5052251;28;20221;-75
2023/03/22 09:07:05;;;;;;;0.50;0.50;;;6.80;99.90;;;;;;5034021;28;20198;-74
2023/03/22 09:09:31;;;;;;;0.80;0.80;;;6.90;99.90;;;;;;5051964;28;20190;-74
2023/03/22 09:11:59;;;;;;;0.52;0.52;;;6.90;99.90;;;;;;5051811;28;20644;-74
2023/03/22 09:14:33;;;;;;;0.55;0.55;;;6.90;99.90;;;;;;5034246;28;20206;-75
2023/03/22 09:17:02;;;;;;;0.68;0.68;;;6.90;99.90;;;;;;5034470;28;20564;-74
2023/03/22 09:19:51;;;;;;;0.50;0.50;;;7.00;99.90;;;;;;5054398;28;20193;-74
2023/03/22 09:22:26;;;;;;;0.70;0.70;;;7.00;99.90;;;;;;5046873;28;20217;-74
2023/03/22 09:25:01;;;;;;;0.60;0.60;;;7.10;99.90;;;;;;5071613;28;20655;-73
2023/03/22 09:27:30;;;;;;;0.65;0.65;;;7.10;99.90;;;;;;5057544;28;20219;-74
2023/03/22 09:29:55;;;;;;;0.60;0.60;;;7.10;99.90;;;;;;5075680;28;20246;-74
2023/03/22 09:32:21;;;;;;;0.70;0.70;;;7.10;99.90;;;;;;5075582;28;20193;-74
2023/03/22 09:34:47;;;;;;;0.65;0.65;;;7.10;99.90;;;;;;5075645;28;20195;-74
2023/03/22 09:37:18;;;;;;;0.60;0.60;;;7.10;99.90;;;;;;5056118;28;20201;-74
2023/03/22 09:39:43;;;;;;;2.15;1.35;;;7.10;99.90;;;;;;5075540;28;20239;-74
2023/03/22 09:42:31;;;;;;;0.70;0.70;;;7.10;99.90;;;;;;5075461;28;20189;-74
2023/03/22 09:45:03;;;;;;;0.60;0.60;;;7.10;99.90;;;;;;5057908;28;20199;-73
2023/03/22 09:47:46;;;;;;;0.60;0.60;;;7.20;99.90;;;;;;5057175;28;20223;-73
2023/03/22 09:50:27;;;;;;;0.63;0.63;;;7.20;99.90;;;;;;5075421;28;20700;-74
2023/03/22 09:53:14;;;;;;;0.70;0.70;;;7.20;99.90;;;;;;5057513;28;20219;-74
2023/03/22 09:55:54;;;;;;;0.60;0.60;;;7.20;99.90;;;;;;5075096;28;20242;-74
2023/03/22 09:58:45;;;;;;;0.60;0.60;;;7.30;99.90;;;;;;5075737;28;20669;-73
2023/03/22 10:01:42;;;;;;;0.60;0.60;;;7.30;99.90;;;;;;5075019;28;20727;-74
2023/03/22 10:04:53;;;;;;;0.50;0.50;;;7.30;99.90;;;;;;5061239;28;20198;-74
2023/03/22 10:08:01;;;;;;;0.60;0.60;;;7.40;99.90;;;;;;4984804;28;20217;-73
2023/03/22 10:10:30;;;;;;;0.75;0.75;;;7.30;99.90;;;;;;4973995;28;20247;-73
2023/03/22 10:13:35;;;;;;;0.60;0.60;;;7.30;99.90;;;;;;4957801;28;20219;-74
2023/03/22 10:16:19;;;;;;;0.70;0.70;;;7.30;99.90;;;;;;4974059;28;20204;-74
2023/03/22 10:18:54;;;;;;;0.80;0.80;;;7.30;99.90;;;;;;4993321;28;20650;-73
2023/03/22 10:21:23;;;;;;;0.60;0.60;;;7.30;99.90;;;;;;4976590;28;20211;-74
2023/03/22 10:24:22;;;;;;;0.60;0.60;;;7.30;99.90;;;;;;4993409;28;20199;-73
2023/03/22 10:26:50;;;;;;;0.68;0.68;;;7.20;99.90;;;;;;4993540;28;20658;-72
2023/03/22 10:30:00;;;;;;;0.50;0.50;;;7.20;99.90;;;;;;4993114;28;20250;-73
2023/03/22 10:33:09;;;;;;;0.50;0.50;;;7.20;99.90;;;;;;4978098;28;20211;-74
2023/03/22 10:35:37;;;;;;;0.60;0.60;;;7.20;99.90;;;;;;4992832;28;20624;-73
2023/03/22 10:38:47;;;;;;;1.50;1.40;;;7.10;99.90;;;;;;4976973;28;20211;-74
2023/03/22 10:41:24;;;;;;;0.50;0.50;;;7.20;99.90;;;;;;4976979;28;20219;-75
2023/03/22 10:44:28;;;;;;;0.50;0.50;;;7.20;99.90;;;;;;5007864;28;20193;-74
2023/03/22 10:50:46;;;;;;;0.57;0.57;;;7.20;99.90;;;;;;5012051;28;20293;-75
2023/03/22 10:53:57;;;;;;;0.50;0.50;;;7.20;99.90;;;;;;5012318;28;20578;-74
2023/03/22 10:56:23;;;;;;;0.70;0.70;;;7.20;99.90;;;;;;5035384;28;20293;-74
2023/03/22 10:59:02;;;;;;;1.30;1.00;;;7.20;99.90;;;;;;5052875;28;20656;-74
2023/03/22 11:02:00;;;;;;;0.60;0.60;;;7.20;99.90;;;;;;5033732;28;20237;-74
2023/03/22 11:04:30;;;;;;;0.50;0.50;;;7.20;99.90;;;;;;5006060;28;20206;-74
2023/03/22 11:06:58;;;;;;;0.70;0.70;;;7.20;99.90;;;;;;5053765;28;20185;-74
2023/03/22 11:09:47;;;;;;;0.50;0.50;;;7.20;99.90;;;;;;5035733;28;20201;-73
2023/03/22 11:12:37;;;;;;;0.57;0.57;;;7.30;99.90;;;;;;5026748;28;20205;-74
2023/03/22 11:15:05;;;;;;;0.60;0.60;;;7.20;99.90;;;;;;5053182;28;20209;-74
2023/03/22 11:17:37;;;;;;;0.70;0.70;;;7.10;99.90;;;;;;5035655;28;20243;-74
2023/03/22 11:20:17;;;;;;;0.60;0.60;;;7.20;99.90;;;;;;5053903;28;20213;-75
2023/03/22 11:26:38;;;;;;;0.60;0.60;;;7.20;99.90;;;;;;5048931;28;20224;-74
2023/03/22 11:29:18;;;;;;;0.63;0.63;;;7.20;99.90;;;;;;5055780;28;20200;-74
2023/03/22 11:32:32;;;;;;;0.80;0.80;;;7.20;99.90;;;;;;5054922;28;20216;-73
2023/03/22 11:35:27;;;;;;;0.60;0.60;;;7.20;99.90;;;;;;5054645;28;20248;-74
2023/03/22 11:37:58;;;;;;;0.60;0.60;;;7.10;99.90;;;;;;5035641;28;20217;-74
2023/03/22 11:40:50;;;;;;;0.60;0.60;;;7.10;99.90;;;;;;5035060;28;20296;-75
2023/03/22 11:43:32;;;;;;;0.60;0.60;;;7.10;99.90;;;;;;5035686;28;20663;-75
2023/03/22 11:46:12;;;;;;;0.60;0.60;;;7.10;99.90;;;;;;5035119;28;20206;-74
2023/03/22 11:49:15;;;;;;;0.60;0.60;;;7.10;99.90;;;;;;5034819;28;20656;-73
2023/03/22 11:51:55;;;;;;;0.60;0.60;;;7.00;99.90;;;;;;5035302;28;20251;-74
2023/03/22 11:54:38;;;;;;;0.60;0.60;;;7.10;99.90;;;;;;5034994;28;20266;-74
2023/03/22 11:57:34;;;;;;;0.60;0.60;;;7.00;99.90;;;;;;5053132;28;20204;-75
2023/03/22 12:00:17;;;;;;;0.50;0.50;;;7.00;99.90;;;;;;5072569;28;20223;-75
2023/03/22 12:03:36;;;;;;;0.50;0.50;;;7.00;99.90;;;;;;5072977;28;20679;-74
2023/03/22 12:06:32;;;;;;;0.60;0.60;;;7.00;99.90;;;;;;5004749;28;20230;-74
2023/03/22 12:09:19;;;;;;;0.70;0.70;;;7.10;99.90;;;;;;5073033;28;20290;-74
2023/03/22 12:12:01;;;;;;;0.60;0.60;;;7.10;99.90;;;;;;5072800;28;20196;-75
2023/03/22 12:14:45;;;;;;;0.65;0.65;;;7.10;99.90;;;;;;5071573;28;20276;-74
2023/03/22 12:17:42;;;;;;;0.70;0.70;;;7.00;99.90;;;;;;5072919;28;20594;-75
2023/03/22 12:20:33;;;;;;;0.55;0.55;;;7.10;99.90;;;;;;5071537;28;20209;-75
2023/03/22 12:23:14;;;;;;;0.60;0.60;;;7.10;99.90;;;;;;5071458;28;20192;-73
2023/03/22 12:26:05;;;;;;;0.65;0.65;;;7.10;99.90;;;;;;5071325;28;20729;-73
2023/03/22 12:28:51;;;;;;;0.63;0.63;;;7.20;99.90;;;;;;5071507;28;20303;-73
2023/03/22 12:32:02;;;;;;;0.70;0.70;;;7.10;99.90;;;;;;5070990;28;20212;-75
2023/03/22 12:34:48;;;;;;;0.60;0.60;;;7.00;99.90;;;;;;5072578;28;20203;-74
2023/03/22 12:37:39;;;;;;;0.70;0.70;;;7.00;99.90;;;;;;5072096;28;20301;-74
2023/03/22 12:40:31;;;;;;;0.65;0.65;;;7.00;99.90;;;;;;5071327;28;20212;-74
2023/03/22 12:43:36;;;;;;;0.63;0.63;;;7.00;99.90;;;;;;5071635;28;20220;-74
2023/03/22 12:46:09;;;;;;;0.60;0.60;;;6.90;99.90;;;;;;5072816;28;20192;-74
2023/03/22 12:48:59;;;;;;;0.50;0.50;;;6.90;99.90;;;;;;5072440;28;20181;-73
2023/03/22 12:51:25;;;;;;;0.50;0.50;;;6.90;99.90;;;;;;5070907;28;20221;-73
2023/03/22 12:53:57;;;;;;;0.63;0.63;;;6.90;99.90;;;;;;5052527;28;20217;-74
2023/03/22 12:56:41;;;;;;;0.70;0.70;;;6.90;99.90;;;;;;5054853;28;20201;-74
2023/03/22 12:59:40;;;;;;;0.75;0.75;;;6.90;99.90;;;;;;5056452;28;20206;-75
2023/03/22 13:02:31;;;;;;;0.63;0.63;;;6.90;99.90;;;;;;5022461;28;20615;-73
2023/03/22 13:05:05;;;;;;;0.70;0.70;;;7.00;99.90;;;;;;5046573;28;20642;-73
2023/03/22 13:07:57;;;;;;;0.60;0.60;;;7.00;99.90;;;;;;5018226;28;20202;-73
2023/03/22 13:10:32;;;;;;;0.77;0.77;;;7.10;99.90;;;;;;5035999;28;20650;-74
2023/03/22 13:13:17;;;;;;;0.60;0.60;;;7.00;99.90;;;;;;5036075;28;20194;-74
2023/03/22 13:16:00;;;;;;;0.82;0.82;;;7.10;99.90;;;;;;5036470;28;20198;-74
2023/03/22 13:18:39;;;;;;;0.43;0.43;;;7.10;99.90;;;;;;5036041;28;20298;-73
2023/03/22 13:21:18;;;;;;;0.55;0.55;;;7.10;99.90;;;;;;5025026;28;20211;-73
2023/03/22 13:24:05;;;;;;;0.60;0.60;;;7.10;99.90;;;;;;5034351;28;20331;-73
2023/03/22 13:26:52;;;;;;;0.60;0.60;;;7.10;99.90;;;;;;5035161;28;20206;-74
2023/03/22 13:29:24;;;;;;;0.60;0.60;;;7.20;99.90;;;;;;5035787;28;20229;-75
2023/03/22 13:31:58;;;;;;;0.60;0.60;;;7.20;99.90;;;;;;5039365;28;20605;-74
2023/03/22 13:34:56;;;;;;;0.80;0.80;;;7.20;99.90;;;;;;5036988;28;20189;-73
2023/03/22 13:37:50;;;;;;;0.70;0.70;;;7.20;99.90;;;;;;5051240;28;20236;-73
2023/03/22 13:40:37;;;;;;;0.70;0.70;;;7.10;99.90;;;;;;5055454;28;20255;-73
2023/03/22 13:43:28;;;;;;;0.60;0.60;;;7.10;99.90;;;;;;5037442;28;20196;-73
2023/03/22 13:46:21;;;;;;;0.68;0.68;;;7.10;99.90;;;;;;5037483;28;20355;-72
2023/03/22 13:48:46;;;;;;;0.60;0.60;;;7.00;99.90;;;;;;5055220;28;20708;-74
2023/03/22 13:51:24;;;;;;;0.80;0.80;;;7.10;99.90;;;;;;5037411;28;20296;-74